createdAt,value
2018-06-07T00:00:57.571Z,1007.82
2018-06-07T00:01:57.570Z,1007.78
2018-06-07T00:02:57.559Z,1007.81
2018-06-07T00:03:57.537Z,1007.77
2018-06-07T00:04:57.522Z,1007.80
2018-06-07T00:05:57.556Z,1007.76
2018-06-07T00:06:57.499Z,1007.72
2018-06-07T00:07:57.488Z,1007.71
2018-06-07T00:08:57.481Z,1007.69
2018-06-07T00:09:57.461Z,1007.71
2018-06-07T00:10:57.449Z,1007.67
2018-06-07T00:11:57.440Z,1007.72
2018-06-07T00:12:57.433Z,1007.67
2018-06-07T00:13:57.411Z,1007.73
2018-06-07T00:14:57.401Z,1007.70
2018-06-07T00:15:57.391Z,1007.70
2018-06-07T00:16:57.375Z,1007.71
2018-06-07T00:17:57.361Z,1007.70
2018-06-07T00:18:57.367Z,1007.70
2018-06-07T00:19:57.342Z,1007.70
2018-06-07T00:20:57.327Z,1007.70
2018-06-07T00:21:57.421Z,1007.69
2018-06-07T00:22:57.307Z,1007.71
2018-06-07T00:23:57.289Z,1007.71
2018-06-07T00:24:57.280Z,1007.70
2018-06-07T00:25:57.264Z,1007.73
2018-06-07T00:26:57.260Z,1007.73
2018-06-07T00:27:57.241Z,1007.75
2018-06-07T00:28:57.230Z,1007.72
2018-06-07T00:29:57.226Z,1007.74
2018-06-07T00:30:57.203Z,1007.75
2018-06-07T00:31:57.190Z,1007.76
2018-06-07T00:32:57.184Z,1007.75
2018-06-07T00:33:57.174Z,1007.75
2018-06-07T00:34:57.154Z,1007.73
2018-06-07T00:35:57.144Z,1007.75
2018-06-07T00:36:57.129Z,1007.77
2018-06-07T00:37:57.120Z,1007.78
2018-06-07T00:38:57.103Z,1007.75
2018-06-07T00:39:57.093Z,1007.79
2018-06-07T00:40:57.079Z,1007.79
2018-06-07T00:41:57.068Z,1007.77
2018-06-07T00:42:57.053Z,1007.79
2018-06-07T00:43:57.040Z,1007.79
2018-06-07T00:44:57.030Z,1007.78
2018-06-07T00:45:57.020Z,1007.78
2018-06-07T00:46:57.004Z,1007.75
2018-06-07T00:47:56.996Z,1007.77
2018-06-07T00:48:56.981Z,1007.75
2018-06-07T00:49:56.968Z,1007.77
2018-06-07T00:50:56.956Z,1007.75
2018-06-07T00:51:56.950Z,1007.72
2018-06-07T00:52:56.938Z,1007.75
2018-06-07T00:53:56.918Z,1007.74
2018-06-07T00:54:56.906Z,1007.73
2018-06-07T00:55:56.896Z,1007.72
2018-06-07T00:56:56.887Z,1007.70
2018-06-07T00:57:56.869Z,1007.74
2018-06-07T00:58:56.856Z,1007.74
2018-06-07T00:59:56.843Z,1007.72
2018-06-07T01:00:56.833Z,1007.74
2018-06-07T01:01:56.821Z,1007.78
2018-06-07T01:02:56.807Z,1007.77
2018-06-07T01:03:56.795Z,1007.79
2018-06-07T01:04:56.790Z,1007.75
2018-06-07T01:05:56.769Z,1007.74
2018-06-07T01:06:56.755Z,1007.78
2018-06-07T01:07:56.747Z,1007.78
2018-06-07T01:08:56.730Z,1007.79
2018-06-07T01:09:56.750Z,1007.83
2018-06-07T01:10:56.706Z,1007.85
2018-06-07T01:11:56.699Z,1007.82
2018-06-07T01:12:56.680Z,1007.82
2018-06-07T01:13:56.670Z,1007.82
2018-06-07T01:14:56.658Z,1007.82
2018-06-07T01:15:56.643Z,1007.80
2018-06-07T01:16:56.629Z,1007.80
2018-06-07T01:17:56.670Z,1007.79
2018-06-07T01:18:56.604Z,1007.80
2018-06-07T01:19:56.593Z,1007.84
2018-06-07T01:20:56.579Z,1007.80
2018-06-07T01:21:56.573Z,1007.83
2018-06-07T01:22:56.555Z,1007.82
2018-06-07T01:23:56.543Z,1007.81
2018-06-07T01:24:56.530Z,1007.81
2018-06-07T01:25:56.519Z,1007.80
2018-06-07T01:26:56.507Z,1007.82
2018-06-07T01:27:56.492Z,1007.82
2018-06-07T01:28:56.479Z,1007.79
2018-06-07T01:29:56.467Z,1007.78
2018-06-07T01:30:56.467Z,1007.79
2018-06-07T01:31:56.470Z,1007.78
2018-06-07T01:32:56.428Z,1007.78
2018-06-07T01:33:56.509Z,1007.77
2018-06-07T01:34:56.402Z,1007.76
2018-06-07T01:35:56.395Z,1007.78
2018-06-07T01:36:56.381Z,1007.80
2018-06-07T01:37:56.365Z,1007.80
2018-06-07T01:38:56.366Z,1007.82
2018-06-07T01:39:56.346Z,1007.79
2018-06-07T01:40:56.330Z,1007.85
2018-06-07T01:41:56.318Z,1007.83
2018-06-07T01:42:56.301Z,1007.85
2018-06-07T01:43:56.292Z,1007.85
2018-06-07T01:44:56.280Z,1007.86
2018-06-07T01:45:56.266Z,1007.86
2018-06-07T01:46:56.251Z,1007.87
2018-06-07T01:47:56.240Z,1007.89
2018-06-07T01:48:56.229Z,1007.87
2018-06-07T01:49:56.219Z,1007.88
2018-06-07T01:50:56.203Z,1007.86
2018-06-07T01:51:56.193Z,1007.86
2018-06-07T01:52:56.182Z,1007.88
2018-06-07T01:53:56.167Z,1007.92
2018-06-07T01:54:56.152Z,1007.89
2018-06-07T01:55:56.141Z,1007.89
2018-06-07T01:56:56.125Z,1007.93
2018-06-07T01:57:56.115Z,1007.91
2018-06-07T01:58:56.100Z,1007.91
2018-06-07T01:59:56.088Z,1007.90
2018-06-07T02:00:56.074Z,1007.95
2018-06-07T02:01:56.070Z,1007.94
2018-06-07T02:02:56.061Z,1007.94
2018-06-07T02:03:56.039Z,1007.99
2018-06-07T02:04:56.026Z,1007.94
2018-06-07T02:05:56.011Z,1007.95
2018-06-07T02:06:56.005Z,1007.93
2018-06-07T02:07:56.043Z,1007.93
2018-06-07T02:08:55.981Z,1007.93
2018-06-07T02:09:55.963Z,1007.92
2018-06-07T02:10:55.954Z,1007.90
2018-06-07T02:11:55.940Z,1007.91
2018-06-07T02:12:55.924Z,1007.91
2018-06-07T02:13:55.913Z,1007.95
2018-06-07T02:14:55.898Z,1007.90
2018-06-07T02:15:55.887Z,1007.93
2018-06-07T02:16:55.874Z,1007.90
2018-06-07T02:17:55.858Z,1007.93
2018-06-07T02:18:55.844Z,1007.91
2018-06-07T02:19:55.835Z,1007.86
2018-06-07T02:20:55.818Z,1007.89
2018-06-07T02:21:55.810Z,1007.87
2018-06-07T02:22:55.796Z,1007.87
2018-06-07T02:23:55.795Z,1007.84
2018-06-07T02:24:55.769Z,1007.84
2018-06-07T02:25:55.759Z,1007.82
2018-06-07T02:26:55.796Z,1007.83
2018-06-07T02:27:55.732Z,1007.81
2018-06-07T02:28:55.723Z,1007.80
2018-06-07T02:29:55.707Z,1007.78
2018-06-07T02:30:55.701Z,1007.78
2018-06-07T02:31:55.684Z,1007.78
2018-06-07T02:32:55.670Z,1007.80
2018-06-07T02:33:55.657Z,1007.79
2018-06-07T02:34:55.645Z,1007.77
2018-06-07T02:35:55.629Z,1007.76
2018-06-07T02:36:55.620Z,1007.78
2018-06-07T02:37:55.612Z,1007.75
2018-06-07T02:38:55.590Z,1007.74
2018-06-07T02:39:55.585Z,1007.75
2018-06-07T02:40:55.572Z,1007.75
2018-06-07T02:41:55.555Z,1007.76
2018-06-07T02:42:55.640Z,1007.78
2018-06-07T02:43:55.533Z,1007.76
2018-06-07T02:44:55.517Z,1007.80
2018-06-07T02:45:55.502Z,1007.82
2018-06-07T02:46:55.495Z,1007.82
2018-06-07T02:47:55.480Z,1007.82
2018-06-07T02:48:55.462Z,1007.79
2018-06-07T02:49:55.450Z,1007.81
2018-06-07T02:50:55.439Z,1007.82
2018-06-07T02:51:55.435Z,1007.82
2018-06-07T02:52:55.417Z,1007.86
2018-06-07T02:53:55.399Z,1007.82
2018-06-07T02:54:55.388Z,1007.86
2018-06-07T02:55:55.377Z,1007.84
2018-06-07T02:56:55.363Z,1007.87
2018-06-07T02:57:55.349Z,1007.87
2018-06-07T02:58:55.337Z,1007.93
2018-06-07T02:59:55.329Z,1007.94
2018-06-07T03:00:55.311Z,1007.94
2018-06-07T03:01:55.302Z,1007.94
2018-06-07T03:02:55.285Z,1007.97
2018-06-07T03:03:55.422Z,1007.99
2018-06-07T03:04:55.258Z,1007.98
2018-06-07T03:05:55.248Z,1008.02
2018-06-07T03:06:55.241Z,1007.98
2018-06-07T03:07:55.216Z,1007.99
2018-06-07T03:08:55.208Z,1008.00
2018-06-07T03:09:55.193Z,1008.01
2018-06-07T03:10:55.179Z,1008.02
2018-06-07T03:11:55.168Z,1008.04
2018-06-07T03:12:55.154Z,1008.02
2018-06-07T03:13:55.150Z,1008.00
2018-06-07T03:14:55.129Z,1008.06
2018-06-07T03:15:55.115Z,1008.06
2018-06-07T03:16:55.106Z,1008.03
2018-06-07T03:17:55.096Z,1008.04
2018-06-07T03:18:55.082Z,1008.09
2018-06-07T03:19:55.069Z,1008.06
2018-06-07T03:20:55.052Z,1008.04
2018-06-07T03:21:55.042Z,1008.08
2018-06-07T03:22:55.087Z,1008.06
2018-06-07T03:23:55.013Z,1008.10
2018-06-07T03:24:55.004Z,1008.05
2018-06-07T03:25:54.989Z,1008.03
2018-06-07T03:26:54.973Z,1008.04
2018-06-07T03:27:54.960Z,1008.07
2018-06-07T03:28:54.951Z,1008.07
2018-06-07T03:29:54.940Z,1008.08
2018-06-07T03:30:54.925Z,1008.11
2018-06-07T03:31:54.928Z,1008.08
2018-06-07T03:32:54.896Z,1008.08
2018-06-07T03:33:54.884Z,1008.07
2018-06-07T03:34:54.871Z,1008.07
2018-06-07T03:35:54.861Z,1008.05
2018-06-07T03:36:54.847Z,1008.03
2018-06-07T03:37:54.831Z,1008.04
2018-06-07T03:38:54.886Z,1008.07
2018-06-07T03:39:54.803Z,1008.06
2018-06-07T03:40:54.791Z,1008.03
2018-06-07T03:41:54.830Z,1008.06
2018-06-07T03:42:54.768Z,1008.09
2018-06-07T03:43:54.755Z,1008.12
2018-06-07T03:44:54.751Z,1008.13
2018-06-07T03:45:54.737Z,1008.13
2018-06-07T03:46:54.713Z,1008.11
2018-06-07T03:47:54.700Z,1008.12
2018-06-07T03:48:54.688Z,1008.14
2018-06-07T03:49:54.674Z,1008.14
2018-06-07T03:50:54.659Z,1008.15
2018-06-07T03:51:54.650Z,1008.13
2018-06-07T03:52:54.641Z,1008.19
2018-06-07T03:53:54.619Z,1008.15
2018-06-07T03:54:54.609Z,1008.15
2018-06-07T03:55:54.598Z,1008.14
2018-06-07T03:56:54.585Z,1008.16
2018-06-07T03:57:54.567Z,1008.14
2018-06-07T03:58:54.560Z,1008.13
2018-06-07T03:59:54.544Z,1008.12
2018-06-07T04:00:54.531Z,1008.10
2018-06-07T04:01:54.519Z,1008.11
2018-06-07T04:02:54.507Z,1008.10
2018-06-07T04:03:54.498Z,1008.12
2018-06-07T04:04:54.481Z,1008.11
2018-06-07T04:05:54.468Z,1008.12
2018-06-07T04:06:54.454Z,1008.15
2018-06-07T04:07:54.441Z,1008.15
2018-06-07T04:08:54.428Z,1008.16
2018-06-07T04:09:54.412Z,1008.20
2018-06-07T04:10:54.401Z,1008.21
2018-06-07T04:11:54.388Z,1008.23
2018-06-07T04:12:54.382Z,1008.17
2018-06-07T04:13:54.364Z,1008.20
2018-06-07T04:14:54.348Z,1008.21
2018-06-07T04:15:54.436Z,1008.18
2018-06-07T04:16:54.321Z,1008.21
2018-06-07T04:17:54.308Z,1008.22
2018-06-07T04:18:54.292Z,1008.23
2018-06-07T04:19:54.281Z,1008.22
2018-06-07T04:20:54.272Z,1008.22
2018-06-07T04:21:54.259Z,1008.23
2018-06-07T04:22:54.245Z,1008.25
2018-06-07T04:23:54.228Z,1008.23
2018-06-07T04:24:54.218Z,1008.22
2018-06-07T04:25:54.205Z,1008.25
2018-06-07T04:26:54.189Z,1008.24
2018-06-07T04:27:54.177Z,1008.24
2018-06-07T04:28:54.174Z,1008.25
2018-06-07T04:29:54.149Z,1008.28
2018-06-07T04:30:54.137Z,1008.29
2018-06-07T04:31:54.129Z,1008.31
2018-06-07T04:32:54.111Z,1008.30
2018-06-07T04:33:54.104Z,1008.31
2018-06-07T04:34:54.111Z,1008.31
2018-06-07T04:35:54.071Z,1008.30
2018-06-07T04:36:54.065Z,1008.33
2018-06-07T04:37:54.049Z,1008.31
2018-06-07T04:38:54.031Z,1008.32
2018-06-07T04:39:54.019Z,1008.37
2018-06-07T04:40:54.010Z,1008.33
2018-06-07T04:41:53.995Z,1008.36
2018-06-07T04:42:53.979Z,1008.35
2018-06-07T04:43:54.016Z,1008.37
2018-06-07T04:44:53.958Z,1008.36
2018-06-07T04:45:53.938Z,1008.35
2018-06-07T04:46:53.933Z,1008.38
2018-06-07T04:47:54.063Z,1008.41
2018-06-07T04:48:53.903Z,1008.42
2018-06-07T04:49:53.890Z,1008.43
2018-06-07T04:50:53.876Z,1008.38
2018-06-07T04:51:53.865Z,1008.42
2018-06-07T04:52:53.851Z,1008.39
2018-06-07T04:53:53.838Z,1008.42
2018-06-07T04:54:53.835Z,1008.41
2018-06-07T04:55:53.868Z,1008.44
2018-06-07T04:56:53.800Z,1008.48
2018-06-07T04:57:53.787Z,1008.47
2018-06-07T04:58:53.779Z,1008.51
2018-06-07T04:59:53.768Z,1008.54
2018-06-07T05:00:53.749Z,1008.51
2018-06-07T05:01:53.733Z,1008.54
2018-06-07T05:02:53.721Z,1008.59
2018-06-07T05:03:53.707Z,1008.58
2018-06-07T05:04:53.695Z,1008.63
2018-06-07T05:05:53.681Z,1008.67
2018-06-07T05:06:53.766Z,1008.66
2018-06-07T05:07:53.659Z,1008.68
2018-06-07T05:08:53.644Z,1008.73
2018-06-07T05:09:53.628Z,1008.71
2018-06-07T05:10:53.617Z,1008.70
2018-06-07T05:11:53.605Z,1008.71
2018-06-07T05:12:53.593Z,1008.69
2018-06-07T05:13:53.580Z,1008.68
2018-06-07T05:14:53.565Z,1008.67
2018-06-07T05:15:53.559Z,1008.66
2018-06-07T05:16:53.544Z,1008.64
2018-06-07T05:17:53.523Z,1008.63
2018-06-07T05:18:53.517Z,1008.65
2018-06-07T05:19:53.509Z,1008.66
2018-06-07T05:20:53.487Z,1008.70
2018-06-07T05:21:53.479Z,1008.69
2018-06-07T05:22:53.459Z,1008.77
2018-06-07T05:23:53.446Z,1008.76
2018-06-07T05:24:53.465Z,1008.75
2018-06-07T05:25:53.419Z,1008.78
2018-06-07T05:26:53.410Z,1008.74
2018-06-07T05:27:53.402Z,1008.74
2018-06-07T05:28:53.383Z,1008.71
2018-06-07T05:29:53.370Z,1008.73
2018-06-07T05:30:53.437Z,1008.73
2018-06-07T05:31:53.346Z,1008.73
2018-06-07T05:32:53.335Z,1008.71
2018-06-07T05:33:53.325Z,1008.74
2018-06-07T05:34:53.312Z,1008.77
2018-06-07T05:35:53.293Z,1008.86
2018-06-07T05:36:53.285Z,1008.86
2018-06-07T05:37:53.272Z,1008.87
2018-06-07T05:38:53.292Z,1008.92
2018-06-07T05:39:53.243Z,1008.92
2018-06-07T05:40:53.233Z,1008.86
2018-06-07T05:41:53.217Z,1008.85
2018-06-07T05:42:53.209Z,1008.84
2018-06-07T05:43:53.194Z,1008.83
2018-06-07T05:44:53.189Z,1008.84
2018-06-07T05:45:53.171Z,1008.85
2018-06-07T05:46:53.164Z,1008.83
2018-06-07T05:47:53.138Z,1008.85
2018-06-07T05:48:53.134Z,1008.90
2018-06-07T05:49:53.115Z,1008.96
2018-06-07T05:50:53.099Z,1009.00
2018-06-07T05:51:53.222Z,1008.99
2018-06-07T05:52:53.075Z,1008.93
2018-06-07T05:53:53.063Z,1008.89
2018-06-07T05:54:53.053Z,1008.84
2018-06-07T05:55:53.155Z,1008.86
2018-06-07T05:56:53.026Z,1008.90
2018-06-07T05:57:53.033Z,1008.93
2018-06-07T05:58:53.000Z,1009.00
2018-06-07T05:59:53.013Z,1009.03
2018-06-07T06:00:52.987Z,1008.98
2018-06-07T06:01:52.960Z,1008.98
2018-06-07T06:02:52.988Z,1008.93
2018-06-07T06:03:52.942Z,1008.89
2018-06-07T06:04:52.928Z,1008.91
2018-06-07T06:05:52.916Z,1008.88
2018-06-07T06:06:52.900Z,1008.92
2018-06-07T06:07:52.884Z,1008.96
2018-06-07T06:08:52.872Z,1008.99
2018-06-07T06:09:52.889Z,1009.01
2018-06-07T06:10:52.950Z,1009.02
2018-06-07T06:11:52.834Z,1009.01
2018-06-07T06:12:52.820Z,1008.99
2018-06-07T06:13:52.822Z,1008.93
2018-06-07T06:14:52.807Z,1008.96
2018-06-07T06:15:52.789Z,1008.97
2018-06-07T06:16:52.770Z,1009.02
2018-06-07T06:17:52.765Z,1009.02
2018-06-07T06:18:52.748Z,1009.02
2018-06-07T06:19:52.732Z,1009.05
2018-06-07T06:20:52.718Z,1009.03
2018-06-07T06:21:52.710Z,1009.02
2018-06-07T06:22:52.699Z,1009.03
2018-06-07T06:23:52.683Z,1009.02
2018-06-07T06:24:52.672Z,1009.02
2018-06-07T06:25:52.663Z,1009.00
2018-06-07T06:26:52.650Z,1008.98
2018-06-07T06:27:52.683Z,1008.97
2018-06-07T06:28:52.622Z,1008.98
2018-06-07T06:29:52.608Z,1008.99
2018-06-07T06:30:52.599Z,1009.01
2018-06-07T06:31:52.590Z,1009.04
2018-06-07T06:32:52.570Z,1009.01
2018-06-07T06:33:52.561Z,1009.04
2018-06-07T06:34:52.552Z,1008.99
2018-06-07T06:35:52.535Z,1008.96
2018-06-07T06:36:52.521Z,1008.96
2018-06-07T06:37:52.514Z,1008.96
2018-06-07T06:38:52.506Z,1008.96
2018-06-07T06:39:52.488Z,1008.95
2018-06-07T06:40:52.481Z,1008.97
2018-06-07T06:41:52.459Z,1008.96
2018-06-07T06:42:52.446Z,1008.95
2018-06-07T06:43:52.490Z,1008.96
2018-06-07T06:44:52.420Z,1008.96
2018-06-07T06:45:52.409Z,1008.97
2018-06-07T06:46:52.395Z,1008.97
2018-06-07T06:47:52.387Z,1008.94
2018-06-07T06:48:52.371Z,1008.90
2018-06-07T06:49:52.359Z,1008.93
2018-06-07T06:50:52.347Z,1008.92
2018-06-07T06:51:52.340Z,1008.90
2018-06-07T06:52:52.322Z,1008.92
2018-06-07T06:53:52.319Z,1008.90
2018-06-07T06:54:52.302Z,1008.86
2018-06-07T06:55:52.283Z,1008.87
2018-06-07T06:56:52.274Z,1008.85
2018-06-07T06:57:52.260Z,1008.88
2018-06-07T06:58:52.249Z,1008.86
2018-06-07T06:59:52.239Z,1008.84
2018-06-07T07:00:52.229Z,1008.89
2018-06-07T07:01:52.208Z,1008.86
2018-06-07T07:02:52.199Z,1008.85
2018-06-07T07:03:52.192Z,1008.87
2018-06-07T07:04:52.177Z,1008.89
2018-06-07T07:05:52.168Z,1008.87
2018-06-07T07:06:52.165Z,1008.91
2018-06-07T07:07:52.140Z,1008.87
2018-06-07T07:08:52.133Z,1008.92
2018-06-07T07:09:52.265Z,1008.88
2018-06-07T07:10:52.116Z,1008.88
2018-06-07T07:11:52.091Z,1008.87
2018-06-07T07:12:52.088Z,1008.88
2018-06-07T07:13:52.070Z,1008.88
2018-06-07T07:14:52.057Z,1008.91
2018-06-07T07:15:52.048Z,1008.95
2018-06-07T07:16:52.031Z,1008.95
2018-06-07T07:17:52.017Z,1008.96
2018-06-07T07:18:52.008Z,1009.00
2018-06-07T07:19:52.002Z,1009.01
2018-06-07T07:20:51.985Z,1009.01
2018-06-07T07:21:51.968Z,1008.99
2018-06-07T07:22:51.960Z,1008.98
2018-06-07T07:23:51.950Z,1008.99
2018-06-07T07:24:51.936Z,1008.96
2018-06-07T07:25:51.921Z,1008.98
2018-06-07T07:26:51.911Z,1008.97
2018-06-07T07:27:51.896Z,1008.98
2018-06-07T07:28:51.888Z,1008.97
2018-06-07T07:29:51.872Z,1008.99
2018-06-07T07:30:51.864Z,1008.97
2018-06-07T07:31:51.861Z,1008.99
2018-06-07T07:32:51.849Z,1009.01
2018-06-07T07:33:52.080Z,1009.03
2018-06-07T07:34:51.812Z,1009.00
2018-06-07T07:35:51.803Z,1008.98
2018-06-07T07:36:52.045Z,1008.95
2018-06-07T07:37:51.778Z,1008.93
2018-06-07T07:38:51.765Z,1008.91
2018-06-07T07:39:51.908Z,1008.84
2018-06-07T07:40:51.745Z,1008.88
2018-06-07T07:41:51.731Z,1008.91
2018-06-07T07:42:51.879Z,1008.92
2018-06-07T07:43:51.710Z,1008.93
2018-06-07T07:44:51.698Z,1008.95
2018-06-07T07:45:51.690Z,1008.89
2018-06-07T07:46:51.675Z,1008.92
2018-06-07T07:47:51.667Z,1008.93
2018-06-07T07:48:51.652Z,1008.94
2018-06-07T07:49:51.648Z,1008.90
2018-06-07T07:50:51.628Z,1008.88
2018-06-07T07:51:51.619Z,1008.95
2018-06-07T07:52:51.705Z,1008.93
2018-06-07T07:53:51.599Z,1008.97
2018-06-07T07:54:51.589Z,1008.99
2018-06-07T07:55:51.570Z,1008.98
2018-06-07T07:56:51.557Z,1008.94
2018-06-07T07:57:51.550Z,1008.97
2018-06-07T07:58:51.540Z,1008.97
2018-06-07T07:59:51.529Z,1008.99
2018-06-07T08:00:51.520Z,1008.96
2018-06-07T08:01:51.502Z,1008.94
2018-06-07T08:02:51.493Z,1008.98
2018-06-07T08:03:51.480Z,1008.96
2018-06-07T08:04:51.470Z,1008.96
2018-06-07T08:05:51.470Z,1008.99
2018-06-07T08:06:51.446Z,1008.99
2018-06-07T08:07:51.439Z,1009.01
2018-06-07T08:08:51.422Z,1009.01
2018-06-07T08:09:51.419Z,1009.02
2018-06-07T08:10:51.401Z,1008.99
2018-06-07T08:11:51.401Z,1008.98
2018-06-07T08:12:51.381Z,1008.92
2018-06-07T08:13:51.421Z,1008.91
2018-06-07T08:14:51.362Z,1008.90
2018-06-07T08:15:51.350Z,1008.98
2018-06-07T08:16:51.384Z,1008.99
2018-06-07T08:17:51.331Z,1008.87
2018-06-07T08:18:51.320Z,1008.95
2018-06-07T08:19:51.299Z,1008.98
2018-06-07T08:20:51.298Z,1008.98
2018-06-07T08:21:51.283Z,1008.97
2018-06-07T08:22:51.269Z,1008.95
2018-06-07T08:23:51.258Z,1008.97
2018-06-07T08:24:51.246Z,1008.95
2018-06-07T08:25:51.233Z,1008.92
2018-06-07T08:26:51.225Z,1008.96
2018-06-07T08:27:51.218Z,1008.96
2018-06-07T08:28:51.201Z,1008.95
2018-06-07T08:29:51.197Z,1008.91
2018-06-07T08:30:51.180Z,1008.95
2018-06-07T08:31:51.170Z,1009.00
2018-06-07T08:32:51.180Z,1008.98
2018-06-07T08:33:51.146Z,1009.04
2018-06-07T08:34:51.150Z,1008.99
2018-06-07T08:35:51.129Z,1009.02
2018-06-07T08:36:51.119Z,1009.00
2018-06-07T08:37:51.107Z,1009.06
2018-06-07T08:38:51.103Z,1009.04
2018-06-07T08:39:51.094Z,1009.05
2018-06-07T08:40:51.079Z,1009.03
2018-06-07T08:41:51.069Z,1009.05
2018-06-07T08:42:51.052Z,1009.09
2018-06-07T08:43:51.045Z,1009.08
2018-06-07T08:44:51.039Z,1009.09
2018-06-07T08:45:51.028Z,1009.08
2018-06-07T08:46:51.010Z,1009.11
2018-06-07T08:47:51.002Z,1009.10
2018-06-07T08:48:50.989Z,1009.14
2018-06-07T08:49:50.982Z,1009.12
2018-06-07T08:50:50.969Z,1009.17
2018-06-07T08:51:50.959Z,1009.16
2018-06-07T08:52:50.968Z,1009.19
2018-06-07T08:53:50.938Z,1009.14
2018-06-07T08:54:50.930Z,1009.16
2018-06-07T08:55:50.917Z,1009.14
2018-06-07T08:56:50.910Z,1009.13
2018-06-07T08:57:50.895Z,1009.18
2018-06-07T08:58:50.896Z,1009.17
2018-06-07T08:59:50.879Z,1009.19
2018-06-07T09:00:50.873Z,1009.22
2018-06-07T09:01:50.855Z,1009.20
2018-06-07T09:02:50.850Z,1009.18
2018-06-07T09:03:50.838Z,1009.20
2018-06-07T09:04:50.824Z,1009.21
2018-06-07T09:05:50.819Z,1009.22
2018-06-07T09:06:50.808Z,1009.21
2018-06-07T09:07:50.798Z,1009.21
2018-06-07T09:08:50.784Z,1009.25
2018-06-07T09:09:50.812Z,1009.25
2018-06-07T09:10:50.768Z,1009.27
2018-06-07T09:11:50.757Z,1009.29
2018-06-07T09:12:50.744Z,1009.27
2018-06-07T09:13:50.741Z,1009.29
2018-06-07T09:14:50.733Z,1009.26
2018-06-07T09:15:50.715Z,1009.25
2018-06-07T09:16:50.705Z,1009.30
2018-06-07T09:17:50.699Z,1009.27
2018-06-07T09:18:50.689Z,1009.30
2018-06-07T09:19:50.675Z,1009.30
2018-06-07T09:20:50.669Z,1009.31
2018-06-07T09:21:50.654Z,1009.32
2018-06-07T09:22:50.650Z,1009.29
2018-06-07T09:23:50.637Z,1009.29
2018-06-07T09:24:50.626Z,1009.27
2018-06-07T09:25:50.714Z,1009.26
2018-06-07T09:26:50.611Z,1009.30
2018-06-07T09:27:50.601Z,1009.29
2018-06-07T09:28:50.586Z,1009.28
2018-06-07T09:29:50.577Z,1009.27
2018-06-07T09:30:50.566Z,1009.27
2018-06-07T09:31:50.560Z,1009.23
2018-06-07T09:32:50.549Z,1009.21
2018-06-07T09:33:50.539Z,1009.20
2018-06-07T09:34:50.529Z,1009.24
2018-06-07T09:35:50.521Z,1009.20
2018-06-07T09:36:50.511Z,1009.23
2018-06-07T09:37:50.500Z,1009.20
2018-06-07T09:38:50.500Z,1009.20
2018-06-07T09:39:50.480Z,1009.24
2018-06-07T09:40:50.470Z,1009.21
2018-06-07T09:41:50.497Z,1009.23
2018-06-07T09:42:50.452Z,1009.24
2018-06-07T09:43:50.441Z,1009.21
2018-06-07T09:44:50.433Z,1009.23
2018-06-07T09:45:50.421Z,1009.21
2018-06-07T09:46:50.428Z,1009.20
2018-06-07T09:47:50.409Z,1009.23
2018-06-07T09:48:50.405Z,1009.25
2018-06-07T09:49:50.386Z,1009.29
2018-06-07T09:50:50.373Z,1009.27
2018-06-07T09:51:50.367Z,1009.27
2018-06-07T09:52:50.475Z,1009.25
2018-06-07T09:53:50.349Z,1009.21
2018-06-07T09:54:50.337Z,1009.23
2018-06-07T09:55:50.336Z,1009.25
2018-06-07T09:56:50.319Z,1009.25
2018-06-07T09:57:50.317Z,1009.23
2018-06-07T09:58:50.300Z,1009.23
2018-06-07T09:59:50.292Z,1009.23
2018-06-07T10:00:50.280Z,1009.21
2018-06-07T10:01:50.271Z,1009.21
2018-06-07T10:02:50.299Z,1009.20
2018-06-07T10:03:50.258Z,1009.18
2018-06-07T10:04:50.253Z,1009.18
2018-06-07T10:05:50.236Z,1009.22
2018-06-07T10:06:50.230Z,1009.21
2018-06-07T10:07:50.221Z,1009.17
2018-06-07T10:08:50.207Z,1009.18
2018-06-07T10:09:50.202Z,1009.16
2018-06-07T10:10:50.191Z,1009.23
2018-06-07T10:11:50.181Z,1009.24
2018-06-07T10:12:50.173Z,1009.22
2018-06-07T10:13:50.166Z,1009.21
2018-06-07T10:14:50.154Z,1009.19
2018-06-07T10:15:50.148Z,1009.20
2018-06-07T10:16:50.139Z,1009.18
2018-06-07T10:17:50.134Z,1009.16
2018-06-07T10:18:50.173Z,1009.16
2018-06-07T10:19:50.108Z,1009.18
2018-06-07T10:20:50.103Z,1009.19
2018-06-07T10:21:50.094Z,1009.13
2018-06-07T10:22:50.081Z,1009.13
2018-06-07T10:23:50.070Z,1009.12
2018-06-07T10:24:50.075Z,1009.15
2018-06-07T10:25:50.057Z,1009.17
2018-06-07T10:26:50.046Z,1009.15
2018-06-07T10:27:50.037Z,1009.13
2018-06-07T10:28:50.033Z,1009.11
2018-06-07T10:29:50.019Z,1009.09
2018-06-07T10:30:50.022Z,1009.08
2018-06-07T10:31:50.020Z,1009.12
2018-06-07T10:32:49.992Z,1009.09
2018-06-07T10:33:49.981Z,1009.14
2018-06-07T10:34:50.026Z,1009.10
2018-06-07T10:35:49.966Z,1009.12
2018-06-07T10:36:49.957Z,1009.15
2018-06-07T10:37:49.948Z,1009.13
2018-06-07T10:38:49.948Z,1009.11
2018-06-07T10:39:49.926Z,1009.15
2018-06-07T10:40:49.919Z,1009.11
2018-06-07T10:41:49.908Z,1009.10
2018-06-07T10:42:49.999Z,1009.11
2018-06-07T10:43:49.896Z,1009.10
2018-06-07T10:44:49.889Z,1009.10
2018-06-07T10:45:49.872Z,1009.06
2018-06-07T10:46:49.864Z,1009.06
2018-06-07T10:47:49.854Z,1009.06
2018-06-07T10:48:49.854Z,1009.06
2018-06-07T10:49:49.837Z,1009.08
2018-06-07T10:50:49.832Z,1009.10
2018-06-07T10:51:49.827Z,1009.05
2018-06-07T10:52:49.811Z,1009.08
2018-06-07T10:53:49.803Z,1009.09
2018-06-07T10:54:49.796Z,1009.12
2018-06-07T10:55:49.940Z,1009.12
2018-06-07T10:56:49.775Z,1009.11
2018-06-07T10:57:49.767Z,1009.09
2018-06-07T10:58:49.788Z,1009.12
2018-06-07T10:59:49.749Z,1009.06
2018-06-07T11:00:49.741Z,1009.06
2018-06-07T11:01:49.728Z,1009.05
2018-06-07T11:02:49.725Z,1009.07
2018-06-07T11:03:49.711Z,1009.06
2018-06-07T11:04:49.712Z,1009.05
2018-06-07T11:05:49.703Z,1009.04
2018-06-07T11:06:49.690Z,1009.03
2018-06-07T11:07:49.681Z,1009.04
2018-06-07T11:08:49.681Z,1009.04
2018-06-07T11:09:49.660Z,1009.00
2018-06-07T11:10:49.651Z,1009.00
2018-06-07T11:11:49.697Z,1008.99
2018-06-07T11:12:49.636Z,1008.97
2018-06-07T11:13:49.631Z,1008.98
2018-06-07T11:14:49.622Z,1008.95
2018-06-07T11:15:49.612Z,1008.93
2018-06-07T11:16:49.604Z,1008.95
2018-06-07T11:17:49.591Z,1008.94
2018-06-07T11:18:49.588Z,1008.92
2018-06-07T11:19:49.590Z,1008.90
2018-06-07T11:20:49.567Z,1008.94
2018-06-07T11:21:49.562Z,1008.95
2018-06-07T11:22:49.548Z,1008.91
2018-06-07T11:23:49.544Z,1008.91
2018-06-07T11:24:49.534Z,1008.89
2018-06-07T11:25:49.524Z,1008.89
2018-06-07T11:26:49.513Z,1008.93
2018-06-07T11:27:49.523Z,1008.89
2018-06-07T11:28:49.508Z,1008.89
2018-06-07T11:29:49.504Z,1008.90
2018-06-07T11:30:49.482Z,1008.91
2018-06-07T11:31:49.479Z,1008.89
2018-06-07T11:32:49.470Z,1008.93
2018-06-07T11:33:49.473Z,1008.90
2018-06-07T11:34:49.450Z,1008.93
2018-06-07T11:35:49.436Z,1008.91
2018-06-07T11:36:49.435Z,1008.91
2018-06-07T11:37:49.438Z,1008.91
2018-06-07T11:38:49.413Z,1008.90
2018-06-07T11:39:49.404Z,1008.91
2018-06-07T11:40:49.403Z,1008.87
2018-06-07T11:41:49.393Z,1008.89
2018-06-07T11:42:49.392Z,1008.86
2018-06-07T11:43:49.379Z,1008.85
2018-06-07T11:44:49.369Z,1008.87
2018-06-07T11:45:49.511Z,1008.87
2018-06-07T11:46:49.349Z,1008.88
2018-06-07T11:47:49.339Z,1008.89
2018-06-07T11:48:49.394Z,1008.84
2018-06-07T11:49:49.324Z,1008.84
2018-06-07T11:50:49.326Z,1008.83
2018-06-07T11:51:49.314Z,1008.75
2018-06-07T11:52:49.303Z,1008.84
2018-06-07T11:53:49.289Z,1008.83
2018-06-07T11:54:49.317Z,1008.76
2018-06-07T11:55:49.277Z,1008.81
2018-06-07T11:56:49.280Z,1008.86
2018-06-07T11:57:49.260Z,1008.83
2018-06-07T11:58:49.252Z,1008.69
2018-06-07T11:59:49.244Z,1008.64
2018-06-07T12:00:49.240Z,1008.67
2018-06-07T12:01:49.225Z,1008.79
2018-06-07T12:02:49.217Z,1008.78
2018-06-07T12:03:49.227Z,1008.80
2018-06-07T12:04:49.201Z,1008.63
2018-06-07T12:05:49.193Z,1008.62